sensor_id;sensor_type;location;lat;lon;timestamp;pressure;altitude;pressure_sealevel;temperature;humidity
73910;BME280;62245;48.070;7.874;2024-02-28T00:01:06;99062.75;;;9.15;81.36
73910;BME280;62245;48.070;7.874;2024-02-28T00:03:31;99055.59;;;9.15;82.07
73910;BME280;62245;48.070;7.874;2024-02-28T00:05:58;99059.84;;;9.09;81.57
73910;BME280;62245;48.070;7.874;2024-02-28T00:08:23;99059.84;;;9.09;81.42
73910;BME280;62245;48.070;7.874;2024-02-28T00:10:48;99055.97;;;9.05;81.75
73910;BME280;62245;48.070;7.874;2024-02-28T00:13:14;99064.78;;;9.06;82.02
73910;BME280;62245;48.070;7.874;2024-02-28T00:15:40;99052.47;;;9.05;82.15
73910;BME280;62245;48.070;7.874;2024-02-28T00:18:06;99053.94;;;9.07;81.63
73910;BME280;62245;48.070;7.874;2024-02-28T00:20:31;99058.84;;;9.11;81.66
73910;BME280;62245;48.070;7.874;2024-02-28T00:22:56;99057.81;;;9.12;82.26
73910;BME280;62245;48.070;7.874;2024-02-28T00:25:21;99066.63;;;9.12;82.10
73910;BME280;62245;48.070;7.874;2024-02-28T00:27:47;99061.50;;;9.11;82.28
73910;BME280;62245;48.070;7.874;2024-02-28T00:30:12;99064.16;;;9.11;82.15
73910;BME280;62245;48.070;7.874;2024-02-28T00:32:38;99056.19;;;9.11;82.27
73910;BME280;62245;48.070;7.874;2024-02-28T00:35:04;99064.59;;;9.14;82.36
73910;BME280;62245;48.070;7.874;2024-02-28T00:37:30;99060.69;;;9.10;82.07
73910;BME280;62245;48.070;7.874;2024-02-28T00:39:55;99059.44;;;9.06;82.24
73910;BME280;62245;48.070;7.874;2024-02-28T00:42:21;99059.63;;;9.04;82.60
73910;BME280;62245;48.070;7.874;2024-02-28T00:44:46;99056.16;;;9.04;82.83
73910;BME280;62245;48.070;7.874;2024-02-28T00:47:11;99064.34;;;9.02;82.95
73910;BME280;62245;48.070;7.874;2024-02-28T00:49:37;99054.72;;;9.01;82.82
73910;BME280;62245;48.070;7.874;2024-02-28T00:52:03;99059.00;;;9.02;83.37
73910;BME280;62245;48.070;7.874;2024-02-28T00:54:28;99056.53;;;8.94;83.59
73910;BME280;62245;48.070;7.874;2024-02-28T00:56:53;99061.47;;;8.97;83.07
73910;BME280;62245;48.070;7.874;2024-02-28T00:59:18;99071.31;;;9.03;83.10
73910;BME280;62245;48.070;7.874;2024-02-28T04:02:34;99202.63;;;7.97;85.05
73910;BME280;62245;48.070;7.874;2024-02-28T04:05:00;99208.28;;;8.09;84.69
73910;BME280;62245;48.070;7.874;2024-02-28T04:07:25;99202.78;;;8.11;84.81
73910;BME280;62245;48.070;7.874;2024-02-28T04:09:50;99198.66;;;8.08;84.76
73910;BME280;62245;48.070;7.874;2024-02-28T04:12:15;99204.16;;;8.07;85.07
73910;BME280;62245;48.070;7.874;2024-02-28T04:14:41;99223.97;;;8.04;84.67
73910;BME280;62245;48.070;7.874;2024-02-28T04:17:06;99213.34;;;8.04;85.08
73910;BME280;62245;48.070;7.874;2024-02-28T04:19:34;99216.25;;;8.09;85.07
73910;BME280;62245;48.070;7.874;2024-02-28T04:22:04;99224.47;;;8.14;84.55
73910;BME280;62245;48.070;7.874;2024-02-28T04:24:29;99215.47;;;8.15;84.44
73910;BME280;62245;48.070;7.874;2024-02-28T04:26:54;99218.53;;;8.12;84.47
73910;BME280;62245;48.070;7.874;2024-02-28T04:29:20;99222.19;;;8.11;84.21
73910;BME280;62245;48.070;7.874;2024-02-28T04:31:45;99224.84;;;8.11;84.39
73910;BME280;62245;48.070;7.874;2024-02-28T04:34:10;99229.28;;;8.04;84.98
73910;BME280;62245;48.070;7.874;2024-02-28T04:36:36;99228.25;;;8.05;84.06
73910;BME280;62245;48.070;7.874;2024-02-28T04:39:01;99235.84;;;8.08;84.25
73910;BME280;62245;48.070;7.874;2024-02-28T04:41:28;99232.94;;;8.03;84.17
73910;BME280;62245;48.070;7.874;2024-02-28T04:43:53;99244.00;;;8.07;84.07
73910;BME280;62245;48.070;7.874;2024-02-28T04:46:19;99249.13;;;8.08;85.29
73910;BME280;62245;48.070;7.874;2024-02-28T04:48:44;99244.84;;;8.07;85.47
73910;BME280;62245;48.070;7.874;2024-02-28T04:51:09;99248.13;;;8.09;85.26
73910;BME280;62245;48.070;7.874;2024-02-28T04:53:34;99253.94;;;7.98;84.29
73910;BME280;62245;48.070;7.874;2024-02-28T04:56:00;99255.84;;;8.04;84.34
73910;BME280;62245;48.070;7.874;2024-02-28T04:58:25;99253.19;;;8.04;84.34
73910;BME280;62245;48.070;7.874;2024-02-28T05:00:50;99251.28;;;7.98;84.15
73910;BME280;62245;48.070;7.874;2024-02-28T05:03:16;99252.03;;;7.92;84.27
73910;BME280;62245;48.070;7.874;2024-02-28T05:05:42;99251.03;;;7.93;84.41
73910;BME280;62245;48.070;7.874;2024-02-28T05:08:07;99265.03;;;8.02;83.80
73910;BME280;62245;48.070;7.874;2024-02-28T05:10:32;99263.38;;;8.01;83.65
73910;BME280;62245;48.070;7.874;2024-02-28T05:12:59;99274.53;;;7.96;83.61
73910;BME280;62245;48.070;7.874;2024-02-28T05:15:24;99259.75;;;7.87;83.82
73910;BME280;62245;48.070;7.874;2024-02-28T05:17:50;99272.22;;;7.86;83.59
73910;BME280;62245;48.070;7.874;2024-02-28T05:20:17;99265.50;;;7.90;83.89
73910;BME280;62245;48.070;7.874;2024-02-28T05:22:42;99275.00;;;8.00;83.73
73910;BME280;62245;48.070;7.874;2024-02-28T05:25:07;99276.28;;;8.04;83.35
73910;BME280;62245;48.070;7.874;2024-02-28T05:27:33;99288.34;;;8.06;83.25
73910;BME280;62245;48.070;7.874;2024-02-28T05:29:58;99293.50;;;8.08;83.28
73910;BME280;62245;48.070;7.874;2024-02-28T05:32:26;99287.34;;;8.07;83.00
73910;BME280;62245;48.070;7.874;2024-02-28T05:34:51;99290.41;;;8.04;83.06
73910;BME280;62245;48.070;7.874;2024-02-28T05:37:16;99288.34;;;8.06;82.74
73910;BME280;62245;48.070;7.874;2024-02-28T05:39:42;99304.13;;;8.08;82.72
73910;BME280;62245;48.070;7.874;2024-02-28T05:42:08;99306.06;;;7.99;82.90
73910;BME280;62245;48.070;7.874;2024-02-28T05:44:34;99306.63;;;7.94;83.30
73910;BME280;62245;48.070;7.874;2024-02-28T05:46:59;99296.66;;;7.82;83.20
73910;BME280;62245;48.070;7.874;2024-02-28T05:49:25;99311.41;;;7.84;83.24
73910;BME280;62245;48.070;7.874;2024-02-28T05:51:50;99324.78;;;7.76;83.13
73910;BME280;62245;48.070;7.874;2024-02-28T05:54:16;99319.56;;;7.68;83.43
73910;BME280;62245;48.070;7.874;2024-02-28T05:56:41;99327.53;;;7.53;84.05
73910;BME280;62245;48.070;7.874;2024-02-28T05:59:06;99334.56;;;7.61;83.47
73910;BME280;62245;48.070;7.874;2024-02-28T06:01:32;99330.09;;;7.62;83.52
73910;BME280;62245;48.070;7.874;2024-02-28T06:03:57;99327.72;;;7.67;83.23
73910;BME280;62245;48.070;7.874;2024-02-28T06:06:22;99324.16;;;7.60;83.18
73910;BME280;62245;48.070;7.874;2024-02-28T06:08:48;99327.53;;;7.53;83.41
73910;BME280;62245;48.070;7.874;2024-02-28T06:11:13;99331.19;;;7.52;83.17
73910;BME280;62245;48.070;7.874;2024-02-28T06:13:42;99333.56;;;7.47;83.44
73910;BME280;62245;48.070;7.874;2024-02-28T06:16:07;99338.63;;;7.42;83.70
73910;BME280;62245;48.070;7.874;2024-02-28T06:18:32;99347.56;;;7.41;83.42
73910;BME280;62245;48.070;7.874;2024-02-28T06:20:59;99352.59;;;7.36;83.53
73910;BME280;62245;48.070;7.874;2024-02-28T06:23:25;99344.25;;;7.25;83.86
73910;BME280;62245;48.070;7.874;2024-02-28T06:25:50;99349.41;;;7.26;84.04
73910;BME280;62245;48.070;7.874;2024-02-28T06:28:15;99354.75;;;7.18;84.15
73910;BME280;62245;48.070;7.874;2024-02-28T06:30:43;99357.06;;;7.21;83.87
73910;BME280;62245;48.070;7.874;2024-02-28T06:33:08;99355.13;;;6.92;84.25
73910;BME280;62245;48.070;7.874;2024-02-28T06:35:34;99367.22;;;6.95;84.27
73910;BME280;62245;48.070;7.874;2024-02-28T06:38:00;99372.38;;;6.96;84.45
73910;BME280;62245;48.070;7.874;2024-02-28T06:40:25;99367.19;;;6.80;84.78
73910;BME280;62245;48.070;7.874;2024-02-28T06:42:50;99375.16;;;6.49;85.83
73910;BME280;62245;48.070;7.874;2024-02-28T06:45:15;99376.72;;;6.66;85.58
73910;BME280;62245;48.070;7.874;2024-02-28T06:47:41;99381.34;;;6.72;84.72
73910;BME280;62245;48.070;7.874;2024-02-28T06:50:06;99389.41;;;6.79;85.04
73910;BME280;62245;48.070;7.874;2024-02-28T06:52:34;99383.09;;;6.80;84.94
73910;BME280;62245;48.070;7.874;2024-02-28T06:55:00;99385.69;;;6.88;84.50
73910;BME280;62245;48.070;7.874;2024-02-28T06:57:28;99390.28;;;6.94;83.89
73910;BME280;62245;48.070;7.874;2024-02-28T06:59:53;99391.81;;;6.89;84.22
73910;BME280;62245;48.070;7.874;2024-02-28T07:02:19;99392.66;;;6.89;83.70
73910;BME280;62245;48.070;7.874;2024-02-28T07:04:44;99395.00;;;6.84;84.03
73910;BME280;62245;48.070;7.874;2024-02-28T07:07:09;99391.22;;;6.78;84.53
73910;BME280;62245;48.070;7.874;2024-02-28T07:09:34;99389.22;;;6.80;84.29
73910;BME280;62245;48.070;7.874;2024-02-28T07:12:00;99396.88;;;6.75;84.45
73910;BME280;62245;48.070;7.874;2024-02-28T07:14:26;99401.19;;;6.76;84.07
73910;BME280;62245;48.070;7.874;2024-02-28T07:16:51;99406.84;;;6.73;84.13
73910;BME280;62245;48.070;7.874;2024-02-28T07:19:17;99411.38;;;6.65;84.45
73910;BME280;62245;48.070;7.874;2024-02-28T07:21:43;99416.47;;;6.66;84.59
73910;BME280;62245;48.070;7.874;2024-02-28T07:24:08;99417.13;;;6.68;84.06
73910;BME280;62245;48.070;7.874;2024-02-28T07:26:33;99430.72;;;6.73;83.74
73910;BME280;62245;48.070;7.874;2024-02-28T07:28:59;99428.69;;;6.75;83.69
73910;BME280;62245;48.070;7.874;2024-02-28T07:31:25;99428.34;;;6.78;83.29
73910;BME280;62245;48.070;7.874;2024-02-28T07:33:50;99439.28;;;6.75;83.85
73910;BME280;62245;48.070;7.874;2024-02-28T07:36:15;99438.72;;;6.65;83.93
73910;BME280;62245;48.070;7.874;2024-02-28T07:38:42;99451.22;;;6.79;83.77
73910;BME280;62245;48.070;7.874;2024-02-28T07:41:07;99446.19;;;6.85;83.40
73910;BME280;62245;48.070;7.874;2024-02-28T07:43:32;99443.91;;;6.81;83.55
73910;BME280;62245;48.070;7.874;2024-02-28T07:46:02;99440.66;;;6.71;84.05
73910;BME280;62245;48.070;7.874;2024-02-28T07:48:28;99455.97;;;6.84;83.62
73910;BME280;62245;48.070;7.874;2024-02-28T07:50:53;99455.03;;;6.77;83.28
73910;BME280;62245;48.070;7.874;2024-02-28T07:53:18;99464.19;;;6.74;83.86
73910;BME280;62245;48.070;7.874;2024-02-28T07:55:44;99463.47;;;6.80;85.31
73910;BME280;62245;48.070;7.874;2024-02-28T07:58:12;99452.03;;;6.80;84.09
73910;BME280;62245;48.070;7.874;2024-02-28T08:00:37;99458.41;;;6.94;84.11
73910;BME280;62245;48.070;7.874;2024-02-28T08:03:03;99472.69;;;6.93;83.85
73910;BME280;62245;48.070;7.874;2024-02-28T08:05:28;99471.50;;;6.95;83.87
73910;BME280;62245;48.070;7.874;2024-02-28T08:07:54;99478.97;;;7.00;83.88
73910;BME280;62245;48.070;7.874;2024-02-28T08:10:19;99488.59;;;6.93;84.07
73910;BME280;62245;48.070;7.874;2024-02-28T08:12:45;99480.56;;;7.01;84.03
73910;BME280;62245;48.070;7.874;2024-02-28T08:15:10;99485.19;;;7.07;83.19
73910;BME280;62245;48.070;7.874;2024-02-28T08:17:35;99485.34;;;6.82;84.53
73910;BME280;62245;48.070;7.874;2024-02-28T08:20:02;99485.44;;;6.97;83.72
73910;BME280;62245;48.070;7.874;2024-02-28T08:22:30;99489.69;;;7.06;83.33
73910;BME280;62245;48.070;7.874;2024-02-28T08:24:55;99485.03;;;7.08;83.03
73910;BME280;62245;48.070;7.874;2024-02-28T08:27:20;99484.38;;;7.06;83.66
73910;BME280;62245;48.070;7.874;2024-02-28T08:29:46;99481.00;;;7.12;83.60
73910;BME280;62245;48.070;7.874;2024-02-28T08:32:12;99494.66;;;7.01;84.66
73910;BME280;62245;48.070;7.874;2024-02-28T08:34:38;99497.41;;;7.16;83.90
73910;BME280;62245;48.070;7.874;2024-02-28T08:37:03;99496.69;;;7.22;83.83
73910;BME280;62245;48.070;7.874;2024-02-28T08:39:29;99495.69;;;7.23;82.82
73910;BME280;62245;48.070;7.874;2024-02-28T08:41:54;99507.03;;;7.17;83.31
73910;BME280;62245;48.070;7.874;2024-02-28T08:44:19;99500.84;;;7.25;83.35
73910;BME280;62245;48.070;7.874;2024-02-28T08:46:47;99486.56;;;7.26;83.11
73910;BME280;62245;48.070;7.874;2024-02-28T08:49:13;99506.75;;;7.35;82.64
73910;BME280;62245;48.070;7.874;2024-02-28T08:51:38;99493.97;;;7.30;83.18
73910;BME280;62245;48.070;7.874;2024-02-28T08:54:05;99496.88;;;7.20;83.62
73910;BME280;62245;48.070;7.874;2024-02-28T08:56:30;99500.06;;;7.16;83.66
73910;BME280;62245;48.070;7.874;2024-02-28T08:58:55;99511.13;;;7.19;83.93
73910;BME280;62245;48.070;7.874;2024-02-28T09:01:21;99502.44;;;7.34;83.00
73910;BME280;62245;48.070;7.874;2024-02-28T09:03:46;99498.22;;;7.39;83.38
73910;BME280;62245;48.070;7.874;2024-02-28T09:06:11;99498.28;;;7.31;83.34
73910;BME280;62245;48.070;7.874;2024-02-28T09:08:36;99496.81;;;7.51;83.34
73910;BME280;62245;48.070;7.874;2024-02-28T09:11:02;99496.28;;;7.56;83.06
73910;BME280;62245;48.070;7.874;2024-02-28T09:13:27;99491.63;;;7.58;83.00
73910;BME280;62245;48.070;7.874;2024-02-28T09:15:53;99492.13;;;7.76;82.89
73910;BME280;62245;48.070;7.874;2024-02-28T09:18:18;99496.75;;;7.60;82.00
73910;BME280;62245;48.070;7.874;2024-02-28T09:20:43;99507.75;;;7.71;82.25
73910;BME280;62245;48.070;7.874;2024-02-28T09:23:09;99500.09;;;7.53;82.33
73910;BME280;62245;48.070;7.874;2024-02-28T09:25:34;99499.69;;;7.65;82.47
73910;BME280;62245;48.070;7.874;2024-02-28T09:28:00;99495.53;;;7.85;82.00
73910;BME280;62245;48.070;7.874;2024-02-28T09:30:26;99509.28;;;8.03;81.32
73910;BME280;62245;48.070;7.874;2024-02-28T09:32:51;99502.53;;;8.30;80.21
73910;BME280;62245;48.070;7.874;2024-02-28T09:35:16;99508.78;;;8.52;79.60
73910;BME280;62245;48.070;7.874;2024-02-28T09:37:42;99506.56;;;9.06;77.69
73910;BME280;62245;48.070;7.874;2024-02-28T09:40:10;99502.81;;;9.86;75.64
73910;BME280;62245;48.070;7.874;2024-02-28T09:42:36;99490.13;;;10.56;73.24
73910;BME280;62245;48.070;7.874;2024-02-28T09:45:02;99490.19;;;11.24;69.99
73910;BME280;62245;48.070;7.874;2024-02-28T09:47:28;99488.16;;;12.12;67.33
73910;BME280;62245;48.070;7.874;2024-02-28T09:49:57;99478.91;;;12.78;65.13
73910;BME280;62245;48.070;7.874;2024-02-28T09:52:26;99478.41;;;13.39;63.25
73910;BME280;62245;48.070;7.874;2024-02-28T09:54:53;99481.25;;;13.94;61.59
73910;BME280;62245;48.070;7.874;2024-02-28T09:57:18;99479.78;;;13.73;61.36
73910;BME280;62245;48.070;7.874;2024-02-28T09:59:44;99484.59;;;14.32;59.80
73910;BME280;62245;48.070;7.874;2024-02-28T10:02:10;99494.03;;;15.08;58.23
73910;BME280;62245;48.070;7.874;2024-02-28T10:04:36;99487.47;;;15.34;57.13
73910;BME280;62245;48.070;7.874;2024-02-28T10:07:14;99478.97;;;15.48;57.21
73910;BME280;62245;48.070;7.874;2024-02-28T10:09:41;99479.09;;;16.07;55.11
73910;BME280;62245;48.070;7.874;2024-02-28T10:12:06;99473.78;;;16.98;53.84
73910;BME280;62245;48.070;7.874;2024-02-28T10:14:32;99483.16;;;17.24;53.35
73910;BME280;62245;48.070;7.874;2024-02-28T10:16:57;99469.88;;;17.80;52.69
73910;BME280;62245;48.070;7.874;2024-02-28T10:19:23;99471.59;;;18.41;49.85
73910;BME280;62245;48.070;7.874;2024-02-28T10:21:48;99485.47;;;18.66;49.26
73910;BME280;62245;48.070;7.874;2024-02-28T10:24:13;99491.56;;;19.27;48.81
73910;BME280;62245;48.070;7.874;2024-02-28T10:26:46;99488.06;;;19.05;49.08
73910;BME280;62245;48.070;7.874;2024-02-28T10:29:23;99490.38;;;20.04;47.99
73910;BME280;62245;48.070;7.874;2024-02-28T10:31:55;99497.13;;;20.95;45.98
73910;BME280;62245;48.070;7.874;2024-02-28T10:34:20;99480.78;;;22.13;43.02
73910;BME280;62245;48.070;7.874;2024-02-28T10:36:46;99482.06;;;22.46;42.42
73910;BME280;62245;48.070;7.874;2024-02-28T10:39:11;99485.09;;;22.30;42.39
73910;BME280;62245;48.070;7.874;2024-02-28T10:41:39;99476.91;;;23.92;39.50
73910;BME280;62245;48.070;7.874;2024-02-28T10:44:05;99484.84;;;24.70;38.12
73910;BME280;62245;48.070;7.874;2024-02-28T10:46:31;99482.72;;;23.42;39.05
73910;BME280;62245;48.070;7.874;2024-02-28T10:48:56;99478.31;;;23.46;39.17
73910;BME280;62245;48.070;7.874;2024-02-28T10:51:25;99479.94;;;25.15;37.89
73910;BME280;62245;48.070;7.874;2024-02-28T10:54:07;99482.47;;;26.87;35.37
73910;BME280;62245;48.070;7.874;2024-02-28T10:56:33;99481.47;;;25.77;35.68
73910;BME280;62245;48.070;7.874;2024-02-28T10:58:59;99466.69;;;24.37;36.89
73910;BME280;62245;48.070;7.874;2024-02-28T11:01:25;99467.66;;;26.47;35.82
73910;BME280;62245;48.070;7.874;2024-02-28T11:03:51;99473.75;;;26.72;34.88
73910;BME280;62245;48.070;7.874;2024-02-28T11:06:18;99486.06;;;28.04;33.33
73910;BME280;62245;48.070;7.874;2024-02-28T11:08:47;99482.34;;;27.78;32.61
73910;BME280;62245;48.070;7.874;2024-02-28T11:11:19;99482.19;;;27.25;33.58
73910;BME280;62245;48.070;7.874;2024-02-28T11:13:52;99488.53;;;25.78;35.41
73910;BME280;62245;48.070;7.874;2024-02-28T11:16:26;99491.31;;;26.24;35.27
73910;BME280;62245;48.070;7.874;2024-02-28T11:18:52;99484.16;;;26.28;34.34
73910;BME280;62245;48.070;7.874;2024-02-28T11:21:18;99476.78;;;26.56;34.57
73910;BME280;62245;48.070;7.874;2024-02-28T11:23:47;99477.84;;;25.44;35.53
73910;BME280;62245;48.070;7.874;2024-02-28T11:26:13;99481.53;;;23.92;38.30
73910;BME280;62245;48.070;7.874;2024-02-28T11:28:38;99483.59;;;22.83;40.27
73910;BME280;62245;48.070;7.874;2024-02-28T11:31:04;99482.63;;;21.27;42.88
73910;BME280;62245;48.070;7.874;2024-02-28T11:33:30;99483.72;;;20.21;44.85
73910;BME280;62245;48.070;7.874;2024-02-28T11:35:56;99488.97;;;18.89;47.86
73910;BME280;62245;48.070;7.874;2024-02-28T11:38:24;99487.38;;;17.49;51.03
73910;BME280;62245;48.070;7.874;2024-02-28T11:40:50;99481.72;;;16.77;52.79
73910;BME280;62245;48.070;7.874;2024-02-28T11:43:15;99484.94;;;15.80;55.14
73910;BME280;62245;48.070;7.874;2024-02-28T11:45:40;99490.38;;;15.21;56.78
73910;BME280;62245;48.070;7.874;2024-02-28T11:48:08;99483.94;;;15.22;57.04
73910;BME280;62245;48.070;7.874;2024-02-28T11:50:34;99486.63;;;15.22;57.68
73910;BME280;62245;48.070;7.874;2024-02-28T11:52:59;99478.44;;;14.68;58.11
73910;BME280;62245;48.070;7.874;2024-02-28T11:55:27;99487.38;;;14.81;57.81
73910;BME280;62245;48.070;7.874;2024-02-28T11:57:52;99489.50;;;15.08;57.54
73910;BME280;62245;48.070;7.874;2024-02-28T12:00:18;99480.28;;;14.86;57.94
73910;BME280;62245;48.070;7.874;2024-02-28T12:02:43;99485.91;;;14.96;58.15
73910;BME280;62245;48.070;7.874;2024-02-28T12:05:09;99482.53;;;15.31;58.00
73910;BME280;62245;48.070;7.874;2024-02-28T12:07:34;99480.78;;;15.55;56.40
73910;BME280;62245;48.070;7.874;2024-02-28T12:10:00;99488.56;;;15.44;56.94
73910;BME280;62245;48.070;7.874;2024-02-28T12:12:28;99480.56;;;15.56;57.10
73910;BME280;62245;48.070;7.874;2024-02-28T12:14:58;99469.94;;;15.73;56.33
73910;BME280;62245;48.070;7.874;2024-02-28T12:17:24;99478.03;;;15.73;55.76
73910;BME280;62245;48.070;7.874;2024-02-28T12:19:50;99472.00;;;15.59;55.32
73910;BME280;62245;48.070;7.874;2024-02-28T12:22:16;99469.81;;;15.56;55.37
73910;BME280;62245;48.070;7.874;2024-02-28T12:24:41;99478.63;;;15.45;55.64
73910;BME280;62245;48.070;7.874;2024-02-28T12:27:06;99477.59;;;15.46;55.98
73910;BME280;62245;48.070;7.874;2024-02-28T12:29:32;99472.66;;;15.43;55.91
73910;BME280;62245;48.070;7.874;2024-02-28T12:31:57;99466.41;;;15.61;55.76
73910;BME280;62245;48.070;7.874;2024-02-28T12:34:22;99464.78;;;15.60;56.17
73910;BME280;62245;48.070;7.874;2024-02-28T12:36:48;99451.19;;;15.66;55.61
73910;BME280;62245;48.070;7.874;2024-02-28T12:39:13;99440.97;;;15.45;56.07
73910;BME280;62245;48.070;7.874;2024-02-28T12:41:39;99444.91;;;15.61;56.00
73910;BME280;62245;48.070;7.874;2024-02-28T12:44:08;99446.22;;;15.81;55.99
73910;BME280;62245;48.070;7.874;2024-02-28T12:46:34;99441.53;;;15.89;55.88
73910;BME280;62245;48.070;7.874;2024-02-28T12:49:00;99445.16;;;15.82;55.88
73910;BME280;62245;48.070;7.874;2024-02-28T12:51:44;99436.16;;;15.89;55.48
73910;BME280;62245;48.070;7.874;2024-02-28T12:54:11;99432.03;;;15.86;54.97
73910;BME280;62245;48.070;7.874;2024-02-28T12:56:38;99430.94;;;15.52;55.54
73910;BME280;62245;48.070;7.874;2024-02-28T12:59:05;99432.03;;;15.63;55.80
73910;BME280;62245;48.070;7.874;2024-02-28T13:01:32;99432.56;;;15.53;55.95
73910;BME280;62245;48.070;7.874;2024-02-28T13:03:58;99430.03;;;15.58;55.82
73910;BME280;62245;48.070;7.874;2024-02-28T13:06:23;99428.63;;;15.67;56.56
73910;BME280;62245;48.070;7.874;2024-02-28T13:08:48;99422.00;;;15.81;56.37
73910;BME280;62245;48.070;7.874;2024-02-28T13:11:24;99428.44;;;15.80;55.74
73910;BME280;62245;48.070;7.874;2024-02-28T13:13:50;99425.75;;;15.80;55.77
73910;BME280;62245;48.070;7.874;2024-02-28T13:16:16;99425.16;;;15.78;56.26
73910;BME280;62245;48.070;7.874;2024-02-28T13:18:42;99421.63;;;15.78;55.29
73910;BME280;62245;48.070;7.874;2024-02-28T13:21:08;99408.75;;;15.68;55.53
73910;BME280;62245;48.070;7.874;2024-02-28T13:23:34;99417.56;;;15.34;56.19
73910;BME280;62245;48.070;7.874;2024-02-28T13:26:00;99416.59;;;15.17;56.85
73910;BME280;62245;48.070;7.874;2024-02-28T13:28:29;99426.56;;;15.39;57.01
73910;BME280;62245;48.070;7.874;2024-02-28T13:30:58;99430.34;;;15.50;56.51
73910;BME280;62245;48.070;7.874;2024-02-28T13:33:24;99417.19;;;15.60;55.96
73910;BME280;62245;48.070;7.874;2024-02-28T13:35:49;99415.25;;;15.49;56.10
73910;BME280;62245;48.070;7.874;2024-02-28T13:38:14;99423.66;;;15.41;56.35
73910;BME280;62245;48.070;7.874;2024-02-28T13:40:39;99419.03;;;15.60;56.46
73910;BME280;62245;48.070;7.874;2024-02-28T13:43:06;99421.63;;;15.66;56.20
73910;BME280;62245;48.070;7.874;2024-02-28T13:45:32;99412.16;;;15.64;55.64
73910;BME280;62245;48.070;7.874;2024-02-28T13:47:57;99408.75;;;15.68;55.60
73910;BME280;62245;48.070;7.874;2024-02-28T13:50:23;99411.50;;;15.50;56.49
73910;BME280;62245;48.070;7.874;2024-02-28T13:52:56;99402.47;;;15.63;56.02
73910;BME280;62245;48.070;7.874;2024-02-28T13:55:22;99405.09;;;15.51;56.30
73910;BME280;62245;48.070;7.874;2024-02-28T13:57:47;99416.03;;;15.56;56.03
73910;BME280;62245;48.070;7.874;2024-02-28T14:00:13;99393.50;;;15.51;56.27
73910;BME280;62245;48.070;7.874;2024-02-28T14:02:39;99401.28;;;15.70;55.61
73910;BME280;62245;48.070;7.874;2024-02-28T14:05:05;99399.19;;;15.72;54.80
73910;BME280;62245;48.070;7.874;2024-02-28T14:07:30;99394.72;;;15.66;55.02
73910;BME280;62245;48.070;7.874;2024-02-28T14:09:55;99398.25;;;15.55;55.90
73910;BME280;62245;48.070;7.874;2024-02-28T14:12:22;99401.00;;;15.48;55.22
73910;BME280;62245;48.070;7.874;2024-02-28T14:14:47;99400.16;;;15.36;55.84
73910;BME280;62245;48.070;7.874;2024-02-28T14:17:12;99395.16;;;14.98;57.33
73910;BME280;62245;48.070;7.874;2024-02-28T14:19:38;99401.53;;;15.16;56.86
73910;BME280;62245;48.070;7.874;2024-02-28T14:22:04;99397.56;;;15.18;57.30
73910;BME280;62245;48.070;7.874;2024-02-28T14:24:29;99396.94;;;15.04;57.42
73910;BME280;62245;48.070;7.874;2024-02-28T14:26:55;99405.06;;;15.28;57.06
73910;BME280;62245;48.070;7.874;2024-02-28T14:29:20;99402.22;;;15.11;57.40
73910;BME280;62245;48.070;7.874;2024-02-28T14:31:46;99405.78;;;15.35;57.11
73910;BME280;62245;48.070;7.874;2024-02-28T14:34:11;99406.25;;;15.43;56.13
73910;BME280;62245;48.070;7.874;2024-02-28T14:36:36;99407.66;;;15.46;56.25
73910;BME280;62245;48.070;7.874;2024-02-28T14:39:02;99416.78;;;15.45;55.87
73910;BME280;62245;48.070;7.874;2024-02-28T14:41:27;99414.91;;;15.45;56.00
73910;BME280;62245;48.070;7.874;2024-02-28T14:43:53;99409.22;;;15.54;55.49
73910;BME280;62245;48.070;7.874;2024-02-28T14:46:18;99418.03;;;15.31;56.01
73910;BME280;62245;48.070;7.874;2024-02-28T14:48:46;99413.84;;;15.35;56.45
73910;BME280;62245;48.070;7.874;2024-02-28T14:51:17;99411.88;;;15.00;56.82
73910;BME280;62245;48.070;7.874;2024-02-28T14:53:42;99410.13;;;15.06;56.05
73910;BME280;62245;48.070;7.874;2024-02-28T14:56:07;99414.44;;;14.95;56.24
73910;BME280;62245;48.070;7.874;2024-02-28T14:58:33;99417.56;;;14.62;57.65
73910;BME280;62245;48.070;7.874;2024-02-28T15:00:58;99413.09;;;14.38;59.11
73910;BME280;62245;48.070;7.874;2024-02-28T15:03:25;99419.56;;;14.30;59.64
73910;BME280;62245;48.070;7.874;2024-02-28T15:05:50;99415.13;;;14.24;59.72
73910;BME280;62245;48.070;7.874;2024-02-28T15:08:16;99415.97;;;14.18;59.74
73910;BME280;62245;48.070;7.874;2024-02-28T15:10:41;99414.50;;;14.22;60.04
73910;BME280;62245;48.070;7.874;2024-02-28T15:13:06;99412.78;;;14.28;59.81
73910;BME280;62245;48.070;7.874;2024-02-28T15:15:32;99418.53;;;14.13;59.91
73910;BME280;62245;48.070;7.874;2024-02-28T15:17:57;99417.06;;;14.17;59.08
73910;BME280;62245;48.070;7.874;2024-02-28T15:20:23;99415.03;;;14.13;59.38
73910;BME280;62245;48.070;7.874;2024-02-28T15:22:48;99418.44;;;14.02;60.44
73910;BME280;62245;48.070;7.874;2024-02-28T15:25:14;99417.47;;;13.96;59.59
73910;BME280;62245;48.070;7.874;2024-02-28T15:27:39;99417.75;;;13.88;59.95
73910;BME280;62245;48.070;7.874;2024-02-28T15:30:05;99413.06;;;13.83;60.14
73910;BME280;62245;48.070;7.874;2024-02-28T15:32:30;99417.41;;;13.59;61.48
73910;BME280;62245;48.070;7.874;2024-02-28T15:34:57;99412.22;;;13.65;61.14
73910;BME280;62245;48.070;7.874;2024-02-28T15:37:22;99418.28;;;13.53;61.35
73910;BME280;62245;48.070;7.874;2024-02-28T15:39:47;99404.13;;;13.46;61.39
73910;BME280;62245;48.070;7.874;2024-02-28T15:42:15;99404.22;;;13.33;61.88
73910;BME280;62245;48.070;7.874;2024-02-28T15:44:40;99407.50;;;13.35;61.27
73910;BME280;62245;48.070;7.874;2024-02-28T15:47:07;99408.84;;;13.19;61.95
73910;BME280;62245;48.070;7.874;2024-02-28T15:49:34;99417.53;;;13.15;62.14
73910;BME280;62245;48.070;7.874;2024-02-28T15:52:00;99411.84;;;12.98;62.58
73910;BME280;62245;48.070;7.874;2024-02-28T15:54:25;99415.44;;;12.85;62.88
73910;BME280;62245;48.070;7.874;2024-02-28T15:56:52;99403.91;;;12.85;62.75
73910;BME280;62245;48.070;7.874;2024-02-28T15:59:17;99410.25;;;12.91;62.77